Time;durP1;ratioP1;P1;durP2;ratioP2;P2;SDS_P1;SDS_P2;PMS_P1;PMS_P2;Temp;Humidity;BMP_temperature;BMP_pressure;BME280_temperature;BME280_humidity;BME280_pressure;Samples;Min_cycle;Max_cycle;Signal;HPM_P1;HPM_P2
2023/07/31 00:01:23;;;;;;;5.93;3.85;;;16.10;99.90;;;;;;5090244;27;20046;-84
2023/07/31 00:03:49;;;;;;;6.20;3.88;;;16.10;99.90;;;;;;5083019;27;20074;-84
2023/07/31 00:06:15;;;;;;;4.13;3.03;;;16.10;99.90;;;;;;5099445;27;20246;-83
2023/07/31 00:08:40;;;;;;;7.60;3.58;;;16.00;99.90;;;;;;5090302;27;20471;-84
2023/07/31 00:11:06;;;;;;;5.32;3.42;;;16.00;99.90;;;;;;5093754;27;20046;-84
2023/07/31 00:13:31;;;;;;;5.85;3.55;;;16.10;99.90;;;;;;5093894;27;20609;-84
2023/07/31 00:15:57;;;;;;;4.75;2.88;;;16.00;99.90;;;;;;5090690;27;20039;-85
2023/07/31 00:18:23;;;;;;;4.63;3.10;;;16.00;99.90;;;;;;5100419;27;20036;-84
2023/07/31 00:20:48;;;;;;;3.92;2.92;;;16.00;99.90;;;;;;5108199;27;20220;-85
2023/07/31 00:23:14;;;;;;;4.25;3.30;;;16.00;99.90;;;;;;5110378;27;20081;-84
2023/07/31 00:25:40;;;;;;;4.57;3.45;;;16.00;99.90;;;;;;5090718;27;20139;-84
2023/07/31 00:28:08;;;;;;;3.80;3.20;;;15.90;99.90;;;;;;5107515;27;20036;-84
2023/07/31 00:30:33;;;;;;;3.95;3.08;;;15.90;99.90;;;;;;5101219;27;20149;-85
2023/07/31 00:32:59;;;;;;;6.03;3.45;;;15.90;99.90;;;;;;5087827;27;20193;-84
2023/07/31 00:35:25;;;;;;;7.93;3.35;;;15.90;99.90;;;;;;5084977;27;20530;-84
2023/07/31 00:37:50;;;;;;;5.03;3.20;;;15.90;99.90;;;;;;5090215;27;20031;-84
2023/07/31 00:40:16;;;;;;;5.05;3.35;;;15.90;99.90;;;;;;5092074;27;20043;-84
2023/07/31 00:42:42;;;;;;;5.85;3.33;;;15.80;99.90;;;;;;5090411;27;20039;-84
2023/07/31 00:45:08;;;;;;;4.35;3.10;;;15.90;99.90;;;;;;5104076;27;20572;-84
2023/07/31 00:47:33;;;;;;;6.25;2.95;;;15.80;99.90;;;;;;5082699;27;20444;-85
2023/07/31 00:50:05;;;;;;;4.32;3.30;;;15.90;99.90;;;;;;5095136;27;20378;-84
2023/07/31 00:52:30;;;;;;;4.18;3.17;;;15.80;99.90;;;;;;5100899;27;20045;-85
2023/07/31 00:54:56;;;;;;;3.60;2.90;;;15.90;99.90;;;;;;5093893;27;20032;-85
2023/07/31 00:57:22;;;;;;;4.32;3.13;;;15.80;99.90;;;;;;5130144;27;20110;-84
2023/07/31 00:59:50;;;;;;;4.53;3.08;;;15.80;99.90;;;;;;5108087;27;20286;-84
2023/07/31 01:02:16;;;;;;;4.72;2.90;;;15.80;99.90;;;;;;5100320;27;20129;-84
2023/07/31 01:04:43;;;;;;;4.82;2.90;;;15.80;99.90;;;;;;5092002;27;20091;-84
2023/07/31 01:07:27;;;;;;;4.10;3.10;;;15.80;99.90;;;;;;5084989;27;20049;-83
2023/07/31 01:10:04;;;;;;;4.35;3.10;;;15.80;99.90;;;;;;5108411;27;20418;-84
2023/07/31 01:12:34;;;;;;;4.97;3.20;;;15.80;99.90;;;;;;5103270;27;20070;-84
2023/07/31 01:15:10;;;;;;;3.75;3.05;;;15.80;99.90;;;;;;5088885;27;20460;-85
2023/07/31 01:17:40;;;;;;;3.63;2.85;;;15.80;99.90;;;;;;5089885;27;20041;-84
2023/07/31 01:20:17;;;;;;;3.17;2.85;;;15.80;99.90;;;;;;5099637;27;20031;-84
2023/07/31 01:23:18;;;;;;;3.95;2.97;;;15.80;99.90;;;;;;5092215;27;20046;-84
2023/07/31 01:25:46;;;;;;;5.18;2.92;;;15.80;99.90;;;;;;5088589;27;20111;-84
2023/07/31 01:28:17;;;;;;;6.45;3.15;;;15.80;99.90;;;;;;5108885;27;20061;-84
2023/07/31 01:30:47;;;;;;;3.75;2.70;;;15.80;99.90;;;;;;5103382;27;20488;-83
2023/07/31 01:33:16;;;;;;;4.43;2.83;;;15.80;99.90;;;;;;5117631;27;20042;-84
2023/07/31 01:35:46;;;;;;;3.97;2.80;;;15.80;99.90;;;;;;5095700;27;20035;-85
2023/07/31 01:38:11;;;;;;;4.13;2.88;;;15.80;99.90;;;;;;5129093;27;20080;-84
2023/07/31 01:40:37;;;;;;;3.80;2.67;;;15.80;99.90;;;;;;5089824;27;20188;-84
2023/07/31 01:43:03;;;;;;;3.42;2.50;;;15.80;99.90;;;;;;5086171;27;20122;-84
2023/07/31 01:45:28;;;;;;;2.47;2.25;;;15.80;99.90;;;;;;5099406;27;20065;-85
2023/07/31 01:47:54;;;;;;;2.78;2.17;;;15.80;99.90;;;;;;5123195;27;20397;-84
2023/07/31 01:50:20;;;;;;;3.75;1.98;;;15.70;99.90;;;;;;5100560;27;20354;-84
2023/07/31 01:52:45;;;;;;;3.15;2.10;;;15.70;99.90;;;;;;5099436;27;20077;-84
2023/07/31 01:55:11;;;;;;;3.58;1.95;;;15.70;99.90;;;;;;5122795;27;20038;-84
2023/07/31 01:57:37;;;;;;;2.72;1.77;;;15.70;99.90;;;;;;5094303;27;20122;-85
2023/07/31 02:00:03;;;;;;;3.03;2.08;;;15.80;99.90;;;;;;5091956;27;20035;-85
2023/07/31 02:02:32;;;;;;;2.03;1.63;;;15.70;99.90;;;;;;5110743;27;20031;-84
2023/07/31 02:04:58;;;;;;;2.65;1.45;;;15.70;99.90;;;;;;5103699;27;20046;-85
2023/07/31 02:07:24;;;;;;;2.15;1.35;;;15.70;99.90;;;;;;5086071;27;20039;-85
2023/07/31 02:09:49;;;;;;;1.70;1.38;;;15.70;99.90;;;;;;5102123;27;21038;-84
2023/07/31 02:12:15;;;;;;;1.42;1.10;;;15.70;99.90;;;;;;5105895;27;20128;-84
2023/07/31 02:14:41;;;;;;;1.17;0.90;;;15.70;99.90;;;;;;5127394;27;20046;-85
2023/07/31 02:17:07;;;;;;;2.60;1.10;;;15.70;99.90;;;;;;5111742;27;20188;-84
2023/07/31 02:19:32;;;;;;;1.15;1.00;;;15.70;99.90;;;;;;5101605;27;20099;-84
2023/07/31 02:21:58;;;;;;;2.00;1.10;;;15.60;99.90;;;;;;5099251;27;20047;-84
2023/07/31 02:24:24;;;;;;;1.05;0.80;;;15.60;99.90;;;;;;5101985;27;20473;-84
2023/07/31 02:26:50;;;;;;;1.27;0.90;;;15.60;99.90;;;;;;5128497;27;20161;-84
2023/07/31 02:29:15;;;;;;;1.30;1.05;;;15.60;99.90;;;;;;5092613;27;20177;-84
2023/07/31 02:31:41;;;;;;;1.38;0.75;;;15.60;99.90;;;;;;5105483;27;20045;-83
2023/07/31 02:34:06;;;;;;;1.23;0.80;;;15.70;99.90;;;;;;5092336;27;20043;-84
2023/07/31 02:36:32;;;;;;;1.52;0.90;;;15.70;99.90;;;;;;5083983;27;20552;-84
2023/07/31 02:38:58;;;;;;;0.85;0.77;;;15.60;99.90;;;;;;5122274;27;20072;-84
2023/07/31 02:41:26;;;;;;;2.78;0.75;;;15.70;99.90;;;;;;5106721;27;20039;-84
2023/07/31 02:43:52;;;;;;;0.73;0.60;;;15.70;99.90;;;;;;5101144;27;20205;-84
2023/07/31 02:46:18;;;;;;;1.80;0.70;;;15.70;99.90;;;;;;5092168;27;20086;-85
2023/07/31 02:48:44;;;;;;;0.70;0.60;;;15.70;99.90;;;;;;5128782;27;20042;-84
2023/07/31 02:51:10;;;;;;;0.93;0.65;;;15.70;99.90;;;;;;5087281;27;20043;-84
2023/07/31 02:53:35;;;;;;;1.38;0.68;;;15.70;99.90;;;;;;5110241;27;20087;-85
2023/07/31 02:56:01;;;;;;;1.90;0.80;;;15.70;99.90;;;;;;5087371;27;20169;-85
2023/07/31 02:58:27;;;;;;;1.05;0.75;;;15.70;99.90;;;;;;5085688;27;20573;-84
2023/07/31 03:00:52;;;;;;;2.05;0.50;;;15.70;99.90;;;;;;5093988;27;20165;-85
2023/07/31 03:03:18;;;;;;;1.88;0.90;;;15.70;99.90;;;;;;5131088;27;20058;-85
2023/07/31 03:05:44;;;;;;;4.70;0.90;;;15.70;99.90;;;;;;5078082;27;20044;-85
2023/07/31 03:08:09;;;;;;;2.00;0.73;;;15.70;99.90;;;;;;5087776;27;20364;-85
2023/07/31 03:10:35;;;;;;;0.98;0.70;;;15.80;99.90;;;;;;5108130;27;20047;-84
2023/07/31 03:13:01;;;;;;;2.63;0.90;;;15.80;99.90;;;;;;5088527;27;20043;-85
2023/07/31 03:15:26;;;;;;;2.05;0.68;;;15.70;99.90;;;;;;5101090;27;20039;-85
2023/07/31 03:17:52;;;;;;;1.00;0.60;;;15.70;99.90;;;;;;5109709;27;20036;-84
2023/07/31 03:20:17;;;;;;;1.00;0.70;;;15.70;99.90;;;;;;5088730;27;20428;-84
2023/07/31 03:22:43;;;;;;;1.38;0.88;;;15.70;99.90;;;;;;5093454;27;20028;-84
2023/07/31 03:25:10;;;;;;;1.67;0.90;;;15.80;99.90;;;;;;5092642;27;20066;-84
2023/07/31 03:27:35;;;;;;;0.63;0.63;;;15.70;99.90;;;;;;5121132;27;20035;-85
2023/07/31 03:30:02;;;;;;;1.65;0.55;;;15.80;99.90;;;;;;5111938;27;20669;-84
2023/07/31 03:32:28;;;;;;;2.67;0.80;;;15.80;99.90;;;;;;5129586;27;20096;-85
2023/07/31 03:34:54;;;;;;;0.90;0.70;;;15.80;99.90;;;;;;5103104;27;20490;-85
2023/07/31 03:37:20;;;;;;;2.30;0.80;;;15.80;99.90;;;;;;5099164;27;20039;-84
2023/07/31 03:39:45;;;;;;;1.38;0.70;;;15.80;99.90;;;;;;5107462;27;20206;-85
2023/07/31 03:42:11;;;;;;;0.47;0.45;;;15.80;99.90;;;;;;5096295;27;20537;-85
2023/07/31 03:44:37;;;;;;;1.40;0.68;;;15.80;99.90;;;;;;5094666;27;20055;-85
2023/07/31 03:47:03;;;;;;;1.85;0.70;;;15.80;99.90;;;;;;5095712;27;20070;-85
2023/07/31 03:49:28;;;;;;;0.80;0.60;;;15.90;99.90;;;;;;5127343;27;20055;-85
2023/07/31 03:51:54;;;;;;;2.10;0.70;;;15.90;99.90;;;;;;5088295;27;20470;-85
2023/07/31 03:54:20;;;;;;;0.63;0.50;;;15.90;99.90;;;;;;5092449;27;20046;-84
2023/07/31 03:56:45;;;;;;;0.80;0.68;;;15.90;99.90;;;;;;5106488;27;20040;-84
2023/07/31 03:59:11;;;;;;;1.02;0.70;;;15.80;99.90;;;;;;5103762;27;20666;-84
2023/07/31 04:01:36;;;;;;;0.75;0.60;;;15.90;99.90;;;;;;5128704;27;20311;-84
2023/07/31 04:04:02;;;;;;;1.95;0.50;;;15.90;99.90;;;;;;5116188;27;20150;-84
2023/07/31 04:06:28;;;;;;;0.88;0.57;;;15.90;99.90;;;;;;5096034;27;20467;-84
2023/07/31 04:08:53;;;;;;;1.48;0.60;;;15.90;99.90;;;;;;5110753;27;20588;-84
2023/07/31 04:11:19;;;;;;;1.50;0.50;;;15.90;99.90;;;;;;5107616;27;20071;-84
2023/07/31 04:13:44;;;;;;;0.93;0.60;;;15.90;99.90;;;;;;5098200;28;20047;-84
2023/07/31 04:16:10;;;;;;;0.55;0.30;;;15.90;99.90;;;;;;5091685;27;20391;-84
2023/07/31 04:18:36;;;;;;;0.55;0.40;;;15.90;99.90;;;;;;5090274;27;20657;-85
2023/07/31 04:21:02;;;;;;;1.05;0.65;;;15.90;99.90;;;;;;5102372;27;20089;-84
2023/07/31 04:23:28;;;;;;;0.50;0.40;;;15.90;99.90;;;;;;5091956;27;20054;-84
2023/07/31 04:25:54;;;;;;;0.40;0.40;;;15.90;99.90;;;;;;5108296;27;20039;-84
2023/07/31 04:28:19;;;;;;;0.55;0.30;;;16.00;99.90;;;;;;5107461;27;20490;-84
2023/07/31 04:30:45;;;;;;;0.50;0.50;;;16.00;99.90;;;;;;5110634;27;20042;-84
2023/07/31 04:33:10;;;;;;;1.13;0.52;;;16.00;99.90;;;;;;5107849;27;20037;-83
2023/07/31 04:35:36;;;;;;;1.05;0.55;;;16.00;99.90;;;;;;5120844;27;20069;-84
2023/07/31 04:38:02;;;;;;;1.00;0.70;;;16.00;99.90;;;;;;5086413;27;20035;-84
2023/07/31 04:40:28;;;;;;;0.88;0.77;;;16.00;99.90;;;;;;5096786;27;20756;-84
2023/07/31 04:42:53;;;;;;;1.10;0.77;;;16.10;99.90;;;;;;5105233;27;20031;-84
2023/07/31 04:45:19;;;;;;;1.02;0.90;;;16.00;99.90;;;;;;5123438;27;20481;-85
2023/07/31 04:47:44;;;;;;;1.35;1.00;;;16.00;99.90;;;;;;5108762;27;20406;-84
2023/07/31 04:50:10;;;;;;;1.40;0.98;;;16.10;99.90;;;;;;5097118;27;20114;-84
2023/07/31 04:52:36;;;;;;;1.75;0.80;;;16.10;99.90;;;;;;5086856;27;20104;-83
2023/07/31 04:55:01;;;;;;;2.22;1.10;;;16.10;99.90;;;;;;5110176;27;20043;-84
2023/07/31 04:57:27;;;;;;;1.38;0.93;;;16.10;99.90;;;;;;5134331;27;20054;-84
2023/07/31 04:59:53;;;;;;;0.80;0.80;;;16.00;99.90;;;;;;5090166;27;20028;-83
2023/07/31 05:02:18;;;;;;;1.30;0.88;;;16.00;99.90;;;;;;5098209;27;20039;-84
2023/07/31 05:04:44;;;;;;;2.22;0.90;;;16.10;99.90;;;;;;5099649;27;20054;-84
2023/07/31 05:07:10;;;;;;;0.85;0.77;;;16.10;99.90;;;;;;5104025;27;20141;-84
2023/07/31 05:09:35;;;;;;;0.82;0.80;;;16.10;99.90;;;;;;5106487;27;20061;-85
2023/07/31 05:12:01;;;;;;;1.27;0.80;;;16.10;99.90;;;;;;5099279;27;20043;-84
2023/07/31 05:14:26;;;;;;;1.52;0.98;;;16.10;99.90;;;;;;5106328;27;20043;-84
2023/07/31 05:16:52;;;;;;;2.55;1.20;;;16.10;99.90;;;;;;5103883;27;20193;-84
2023/07/31 05:19:18;;;;;;;1.40;1.10;;;16.00;99.90;;;;;;5084922;27;20138;-84
2023/07/31 05:21:44;;;;;;;3.22;1.15;;;16.10;99.90;;;;;;5091989;27;20090;-84
2023/07/31 05:24:10;;;;;;;2.42;0.90;;;16.10;99.90;;;;;;5110112;27;20060;-84
2023/07/31 05:26:37;;;;;;;5.68;1.13;;;16.10;99.90;;;;;;5116714;27;20051;-84
2023/07/31 05:29:03;;;;;;;1.27;1.00;;;16.10;99.90;;;;;;5086855;27;20035;-84
2023/07/31 05:31:29;;;;;;;1.23;0.98;;;16.20;99.90;;;;;;5088794;27;20107;-84
2023/07/31 05:33:54;;;;;;;1.63;1.00;;;16.20;99.90;;;;;;5107490;27;20057;-85
2023/07/31 05:36:20;;;;;;;1.27;1.00;;;16.20;99.90;;;;;;5111738;27;20041;-84
2023/07/31 05:38:46;;;;;;;0.93;0.75;;;16.20;99.90;;;;;;5086971;27;20448;-85
2023/07/31 05:41:12;;;;;;;3.80;1.10;;;16.20;99.90;;;;;;5091881;27;20429;-85
2023/07/31 05:43:38;;;;;;;1.55;1.20;;;16.30;99.90;;;;;;5103902;27;20092;-84
2023/07/31 05:46:04;;;;;;;1.20;0.90;;;16.20;99.90;;;;;;5107639;27;20038;-85
2023/07/31 05:48:30;;;;;;;2.83;1.30;;;16.30;99.90;;;;;;5128074;27;20382;-85
2023/07/31 05:50:56;;;;;;;2.38;1.60;;;16.30;99.90;;;;;;5104699;27;20452;-85
2023/07/31 05:53:22;;;;;;;2.22;1.50;;;16.30;99.90;;;;;;5093563;27;20261;-85
2023/07/31 05:55:47;;;;;;;2.33;1.35;;;16.40;99.90;;;;;;5130734;27;20318;-85
2023/07/31 05:58:13;;;;;;;2.15;1.30;;;16.40;99.90;;;;;;5110584;27;20414;-85
2023/07/31 06:00:39;;;;;;;2.20;1.45;;;16.40;99.90;;;;;;5110044;27;20035;-85
2023/07/31 06:03:04;;;;;;;4.57;2.08;;;16.40;99.90;;;;;;5081496;27;20098;-85
2023/07/31 06:05:30;;;;;;;3.65;1.65;;;16.40;99.90;;;;;;5082359;27;20042;-84
2023/07/31 06:07:56;;;;;;;3.85;1.80;;;16.40;99.90;;;;;;5093977;27;20083;-84
2023/07/31 06:10:22;;;;;;;2.65;1.70;;;16.40;99.90;;;;;;5113662;27;20061;-84
2023/07/31 06:12:48;;;;;;;4.93;2.00;;;16.60;99.90;;;;;;5088628;27;20068;-84
2023/07/31 06:15:13;;;;;;;4.53;1.98;;;16.60;99.90;;;;;;5102008;27;20123;-84
2023/07/31 06:17:39;;;;;;;6.53;2.78;;;16.80;99.90;;;;;;5109209;27;20036;-84
2023/07/31 06:20:06;;;;;;;8.82;3.67;;;16.80;99.90;;;;;;5081114;27;20067;-84
2023/07/31 06:22:35;;;;;;;13.15;4.10;;;16.90;99.90;;;;;;5118078;27;20092;-82
2023/07/31 06:25:22;;;;;;;14.45;4.53;;;17.00;99.90;;;;;;5119037;27;20104;-84
2023/07/31 06:27:48;;;;;;;12.55;4.43;;;17.10;99.90;;;;;;5088375;27;20967;-84
2023/07/31 06:30:13;;;;;;;12.25;4.57;;;17.30;99.90;;;;;;5101089;27;20044;-84
2023/07/31 06:32:40;;;;;;;19.88;5.57;;;17.40;99.90;;;;;;5110968;27;20050;-84
2023/07/31 06:35:08;;;;;;;18.58;5.50;;;17.60;99.90;;;;;;5107147;27;20089;-85
2023/07/31 06:37:33;;;;;;;17.40;5.72;;;17.60;99.90;;;;;;5099752;27;20094;-85
2023/07/31 06:39:59;;;;;;;20.42;5.30;;;17.70;99.90;;;;;;5095841;27;20504;-85
2023/07/31 06:42:28;;;;;;;14.75;5.43;;;17.80;99.90;;;;;;5093808;27;20257;-84
2023/07/31 06:44:53;;;;;;;16.08;5.53;;;17.90;99.90;;;;;;5110970;27;20063;-84
2023/07/31 06:47:19;;;;;;;14.05;5.60;;;17.80;99.90;;;;;;5101697;27;20042;-85
2023/07/31 06:49:45;;;;;;;12.68;5.38;;;18.00;99.90;;;;;;5116774;27;20061;-84
2023/07/31 06:52:11;;;;;;;24.02;6.78;;;17.90;99.90;;;;;;5102508;27;20074;-84
2023/07/31 06:54:36;;;;;;;16.00;5.60;;;18.00;99.90;;;;;;5102224;27;20174;-84
2023/07/31 06:57:03;;;;;;;17.10;6.15;;;17.90;99.90;;;;;;5105050;27;20031;-84
2023/07/31 06:59:29;;;;;;;12.07;4.78;;;18.10;99.90;;;;;;5121952;27;20512;-84
2023/07/31 07:01:54;;;;;;;14.90;5.07;;;18.10;99.90;;;;;;5123132;27;20066;-84
2023/07/31 07:04:20;;;;;;;14.27;4.28;;;18.10;99.90;;;;;;5107066;27;20085;-83
2023/07/31 07:06:46;;;;;;;14.10;5.85;;;18.10;99.90;;;;;;5090946;27;20100;-84
2023/07/31 07:09:12;;;;;;;12.13;4.53;;;18.10;99.90;;;;;;5109805;27;20393;-84
2023/07/31 07:11:37;;;;;;;13.52;4.70;;;18.10;99.90;;;;;;5120337;27;20047;-84
2023/07/31 07:14:03;;;;;;;12.43;3.88;;;18.10;99.90;;;;;;5109123;27;20501;-84
2023/07/31 07:16:29;;;;;;;11.90;4.72;;;18.00;99.90;;;;;;5107983;27;20043;-83
2023/07/31 07:18:54;;;;;;;14.25;4.85;;;17.90;99.90;;;;;;5111351;27;20164;-84
2023/07/31 07:21:20;;;;;;;14.70;4.53;;;17.80;99.90;;;;;;5083907;27;20067;-84
2023/07/31 07:23:46;;;;;;;11.18;4.25;;;17.70;99.90;;;;;;5080262;27;20123;-85
2023/07/31 07:26:11;;;;;;;13.55;4.53;;;17.70;99.90;;;;;;5109554;27;20034;-85
2023/07/31 07:28:37;;;;;;;10.55;4.18;;;17.70;99.90;;;;;;5118412;27;20036;-85
2023/07/31 07:31:03;;;;;;;11.07;3.67;;;17.80;99.90;;;;;;5134820;27;20050;-85
2023/07/31 07:33:28;;;;;;;9.63;3.88;;;17.80;99.90;;;;;;5106778;27;20034;-85
2023/07/31 07:35:54;;;;;;;7.80;3.60;;;17.90;99.90;;;;;;5107081;27;20447;-85
2023/07/31 07:38:20;;;;;;;9.13;3.65;;;17.80;99.90;;;;;;5095652;27;20042;-85
2023/07/31 07:40:50;;;;;;;8.13;3.50;;;17.70;99.90;;;;;;5113043;27;20042;-84
2023/07/31 07:43:16;;;;;;;6.55;2.70;;;17.60;99.90;;;;;;5118410;27;20046;-84
2023/07/31 07:45:41;;;;;;;9.07;2.83;;;17.70;99.90;;;;;;5092356;27;20042;-84
2023/07/31 07:48:07;;;;;;;7.35;3.00;;;17.70;99.90;;;;;;5091387;27;20253;-84
2023/07/31 07:50:33;;;;;;;5.75;2.20;;;17.60;99.90;;;;;;5086858;27;20080;-85
2023/07/31 07:52:58;;;;;;;5.45;2.20;;;17.80;99.90;;;;;;5089669;27;20118;-85
2023/07/31 07:55:24;;;;;;;4.68;2.33;;;17.80;99.90;;;;;;5132794;27;20119;-84
2023/07/31 07:57:50;;;;;;;3.50;2.10;;;17.70;99.90;;;;;;5094405;27;20071;-85
2023/07/31 08:00:17;;;;;;;4.70;2.40;;;17.90;99.90;;;;;;5115422;27;20134;-85
2023/07/31 08:02:43;;;;;;;3.65;2.20;;;17.90;99.90;;;;;;5094728;27;20043;-84
2023/07/31 08:05:09;;;;;;;5.97;2.35;;;18.00;99.90;;;;;;5098822;27;20035;-84
2023/07/31 08:07:35;;;;;;;5.13;2.17;;;18.10;99.90;;;;;;5125070;27;20536;-85
2023/07/31 08:10:00;;;;;;;3.95;2.13;;;18.00;99.90;;;;;;5108311;27;20035;-85
2023/07/31 08:12:26;;;;;;;4.57;2.10;;;17.90;99.90;;;;;;5092130;28;20039;-85
2023/07/31 08:14:52;;;;;;;3.80;1.70;;;17.90;99.90;;;;;;5097947;27;20091;-85
2023/07/31 08:17:17;;;;;;;3.40;1.42;;;17.90;99.90;;;;;;5100275;28;20046;-84
2023/07/31 08:19:44;;;;;;;3.30;1.95;;;17.80;99.90;;;;;;5089681;27;20491;-85
2023/07/31 08:22:09;;;;;;;2.60;1.27;;;17.80;99.90;;;;;;5093349;27;20507;-85
2023/07/31 08:24:35;;;;;;;2.95;1.60;;;17.80;99.90;;;;;;5101182;27;20074;-85
2023/07/31 08:27:01;;;;;;;2.55;1.60;;;17.80;99.90;;;;;;5107603;27;20039;-85
2023/07/31 08:29:26;;;;;;;2.30;1.38;;;17.80;99.90;;;;;;5103743;27;20050;-85
2023/07/31 08:31:52;;;;;;;5.05;1.85;;;17.90;99.90;;;;;;5113497;27;20070;-85
2023/07/31 08:34:18;;;;;;;2.60;1.60;;;18.10;99.90;;;;;;5107514;27;20050;-84
2023/07/31 08:36:43;;;;;;;2.85;1.55;;;18.10;99.90;;;;;;5088494;27;20485;-85
2023/07/31 08:39:09;;;;;;;1.83;1.40;;;18.10;99.90;;;;;;5104210;27;20110;-85
2023/07/31 08:41:39;;;;;;;2.85;1.38;;;18.20;99.90;;;;;;5134009;27;20156;-85
2023/07/31 08:44:05;;;;;;;2.28;1.27;;;18.30;99.90;;;;;;5120236;27;20074;-84
2023/07/31 08:46:32;;;;;;;2.10;1.40;;;18.20;99.90;;;;;;5113107;27;20555;-85
2023/07/31 08:48:59;;;;;;;1.55;1.23;;;18.30;99.90;;;;;;5095402;27;20107;-85
2023/07/31 08:51:25;;;;;;;2.53;1.10;;;18.20;99.90;;;;;;5088618;27;20116;-85
2023/07/31 08:53:53;;;;;;;1.63;1.13;;;18.40;99.90;;;;;;5101763;28;20046;-85
2023/07/31 08:56:19;;;;;;;2.33;1.08;;;18.60;99.90;;;;;;5094144;27;20038;-84
2023/07/31 08:58:47;;;;;;;1.30;1.10;;;18.60;99.90;;;;;;5090425;27;20053;-84
2023/07/31 09:01:13;;;;;;;1.85;1.17;;;18.70;99.90;;;;;;5106693;27;20351;-84
2023/07/31 09:03:40;;;;;;;3.15;1.10;;;18.50;99.90;;;;;;5100291;27;20038;-84
2023/07/31 09:06:06;;;;;;;1.30;1.00;;;18.70;99.90;;;;;;5099310;27;20039;-84
2023/07/31 09:08:37;;;;;;;2.25;0.95;;;18.40;99.90;;;;;;5108218;27;20122;-83
2023/07/31 09:11:03;;;;;;;1.25;0.70;;;18.60;99.90;;;;;;5109665;27;20038;-84
2023/07/31 09:13:31;;;;;;;1.40;1.17;;;18.80;99.90;;;;;;5114227;27;20050;-84
2023/07/31 09:15:56;;;;;;;3.17;0.70;;;19.00;99.90;;;;;;5131271;27;20039;-84
2023/07/31 09:18:22;;;;;;;1.38;0.98;;;18.90;99.90;;;;;;5120893;27;20084;-84
2023/07/31 09:21:05;;;;;;;1.48;0.82;;;19.10;99.90;;;;;;5124984;27;20039;-85
2023/07/31 09:23:45;;;;;;;1.13;0.88;;;19.00;99.90;;;;;;5088168;27;20566;-83
2023/07/31 09:26:11;;;;;;;1.17;0.70;;;19.00;99.90;;;;;;5102237;27;20042;-84
2023/07/31 09:28:37;;;;;;;1.90;0.60;;;19.00;99.90;;;;;;5109919;27;20054;-84
2023/07/31 09:31:02;;;;;;;0.70;0.50;;;19.10;99.90;;;;;;5103601;27;20429;-84
2023/07/31 09:33:28;;;;;;;0.60;0.60;;;19.10;99.90;;;;;;5089916;27;20047;-84
2023/07/31 09:35:54;;;;;;;0.73;0.55;;;19.10;99.90;;;;;;5103242;27;20581;-84
2023/07/31 09:38:19;;;;;;;0.50;0.50;;;19.30;99.90;;;;;;5096669;27;20031;-84
2023/07/31 09:40:47;;;;;;;1.20;0.50;;;19.20;99.90;;;;;;5092187;27;20046;-84
2023/07/31 09:43:18;;;;;;;0.40;0.40;;;19.20;99.90;;;;;;5117716;27;20050;-84
2023/07/31 09:45:45;;;;;;;0.45;0.45;;;19.50;99.90;;;;;;5112189;27;20031;-84
2023/07/31 09:48:12;;;;;;;0.40;0.40;;;19.60;99.90;;;;;;5106373;27;20122;-84
2023/07/31 09:50:40;;;;;;;0.40;0.40;;;20.00;99.90;;;;;;5109644;27;20039;-84
2023/07/31 09:53:07;;;;;;;0.60;0.45;;;20.00;99.90;;;;;;5092644;27;20035;-84
2023/07/31 09:55:33;;;;;;;0.40;0.40;;;20.00;99.90;;;;;;5097593;27;20978;-84
2023/07/31 09:58:03;;;;;;;0.30;0.30;;;20.10;99.90;;;;;;5101817;27;20463;-84
2023/07/31 10:00:30;;;;;;;0.40;0.40;;;20.20;99.90;;;;;;5132742;27;20093;-84
2023/07/31 10:03:00;;;;;;;0.30;0.30;;;20.60;99.90;;;;;;5103297;27;20440;-84
2023/07/31 10:05:33;;;;;;;1.27;0.55;;;20.80;99.90;;;;;;5113950;27;20051;-84
2023/07/31 10:08:00;;;;;;;0.55;0.30;;;20.90;99.90;;;;;;5096060;27;20529;-84
2023/07/31 10:10:27;;;;;;;0.60;0.30;;;20.70;99.90;;;;;;5102781;27;20076;-84
2023/07/31 10:12:54;;;;;;;1.60;0.20;;;20.60;99.90;;;;;;5116015;27;20770;-85
2023/07/31 10:15:20;;;;;;;0.35;0.30;;;20.40;99.90;;;;;;5105743;27;20111;-85
2023/07/31 10:17:50;;;;;;;0.25;0.22;;;20.40;99.90;;;;;;5098240;27;20038;-85
2023/07/31 10:20:16;;;;;;;0.45;0.30;;;20.70;99.90;;;;;;5110921;27;20091;-85
2023/07/31 10:22:43;;;;;;;0.20;0.20;;;20.80;99.90;;;;;;5090171;27;20444;-85
2023/07/31 10:25:10;;;;;;;0.20;0.20;;;20.90;99.90;;;;;;5116085;27;20091;-85
2023/07/31 10:27:38;;;;;;;0.30;0.20;;;20.90;99.90;;;;;;5111009;27;20096;-84
2023/07/31 10:30:25;;;;;;;0.50;0.30;;;20.80;99.90;;;;;;5131088;27;20050;-84
2023/07/31 10:32:51;;;;;;;0.20;0.20;;;21.10;99.90;;;;;;5110863;27;20512;-85
2023/07/31 10:35:23;;;;;;;0.30;0.30;;;20.80;99.90;;;;;;5133602;27;20446;-84
2023/07/31 10:37:49;;;;;;;0.60;0.38;;;20.50;99.90;;;;;;5115014;27;20046;-84
2023/07/31 10:40:26;;;;;;;1.42;0.95;;;21.10;99.90;;;;;;5117211;27;20030;-85
2023/07/31 10:42:53;;;;;;;0.22;0.20;;;21.00;99.90;;;;;;5110074;27;20099;-84
2023/07/31 10:45:38;;;;;;;0.50;0.30;;;21.00;99.90;;;;;;5104448;27;20062;-84
2023/07/31 10:48:05;;;;;;;0.32;0.32;;;20.70;99.90;;;;;;5116149;27;20374;-85
2023/07/31 10:50:36;;;;;;;0.45;0.40;;;20.60;99.90;;;;;;5113346;27;20433;-84
2023/07/31 10:53:03;;;;;;;0.35;0.35;;;20.60;99.90;;;;;;5107910;27;20394;-85
2023/07/31 10:55:47;;;;;;;0.20;0.10;;;20.20;99.90;;;;;;5131733;27;20035;-82
2023/07/31 10:58:17;;;;;;;0.10;0.10;;;20.00;99.90;;;;;;5105474;27;20114;-83
2023/07/31 11:00:44;;;;;;;0.00;0.00;;;19.90;99.90;;;;;;5092186;27;20054;-82
2023/07/31 11:03:16;;;;;;;0.00;0.00;;;19.80;99.90;;;;;;5094111;27;20028;-82
2023/07/31 11:05:50;;;;;;;1.85;0.20;;;19.60;99.90;;;;;;5093203;27;20479;-81
2023/07/31 11:08:25;;;;;;;0.15;0.10;;;19.40;99.90;;;;;;5098031;27;20038;-81
2023/07/31 11:11:03;;;;;;;0.00;0.00;;;19.60;99.90;;;;;;5110403;27;20140;-82
2023/07/31 11:13:39;;;;;;;0.35;0.10;;;19.40;99.90;;;;;;5108272;27;20050;-81
2023/07/31 11:16:04;;;;;;;0.17;0.10;;;19.50;99.90;;;;;;5104111;27;20199;-82
2023/07/31 11:18:30;;;;;;;0.00;0.00;;;19.40;99.90;;;;;;5110342;27;20151;-81
2023/07/31 11:20:56;;;;;;;1.00;0.30;;;19.20;99.90;;;;;;5097051;27;20042;-81
2023/07/31 11:23:22;;;;;;;0.00;0.00;;;19.10;99.90;;;;;;5091595;27;20379;-81
2023/07/31 11:25:49;;;;;;;0.20;0.10;;;19.20;99.90;;;;;;5112718;27;20031;-82
2023/07/31 11:28:16;;;;;;;0.88;0.22;;;19.00;99.90;;;;;;5088096;27;20481;-82
2023/07/31 11:30:43;;;;;;;0.20;0.10;;;19.10;99.90;;;;;;5091750;27;20519;-81
2023/07/31 11:33:11;;;;;;;0.40;0.03;;;19.20;99.90;;;;;;5108165;27;20037;-82
2023/07/31 11:35:41;;;;;;;0.45;0.10;;;19.20;99.90;;;;;;5112954;27;20294;-82
2023/07/31 11:38:08;;;;;;;0.20;0.10;;;19.30;99.90;;;;;;5120403;27;20031;-82
2023/07/31 11:40:42;;;;;;;0.13;0.10;;;19.20;99.90;;;;;;5088416;27;20043;-82
2023/07/31 11:43:08;;;;;;;0.10;0.10;;;19.20;99.90;;;;;;5099461;27;20080;-81
2023/07/31 11:45:35;;;;;;;0.22;0.10;;;19.30;99.90;;;;;;5101948;27;20531;-82
2023/07/31 11:48:01;;;;;;;1.05;0.20;;;19.50;99.90;;;;;;5106708;27;20093;-82
2023/07/31 11:50:29;;;;;;;0.75;0.30;;;20.00;99.90;;;;;;5086337;27;20156;-80
2023/07/31 11:53:00;;;;;;;0.35;0.30;;;20.40;99.90;;;;;;5082451;27;20035;-82
2023/07/31 11:55:26;;;;;;;0.30;0.30;;;20.70;99.90;;;;;;5083439;27;20031;-82
2023/07/31 11:57:53;;;;;;;0.45;0.40;;;21.30;99.90;;;;;;5120220;27;20684;-82
2023/07/31 12:00:20;;;;;;;0.45;0.40;;;21.00;99.90;;;;;;5116073;27;20034;-82
2023/07/31 12:02:46;;;;;;;0.88;0.40;;;21.00;99.90;;;;;;5110491;27;20061;-83
2023/07/31 12:05:15;;;;;;;0.70;0.32;;;21.20;99.90;;;;;;5085400;27;20042;-83
2023/07/31 12:07:54;;;;;;;1.00;0.65;;;21.70;99.90;;;;;;5086074;27;20416;-82
2023/07/31 12:10:30;;;;;;;0.52;0.50;;;21.30;99.90;;;;;;5090236;27;20118;-82
2023/07/31 12:13:04;;;;;;;0.73;0.60;;;21.30;99.90;;;;;;5091797;27;20047;-83
2023/07/31 12:15:44;;;;;;;0.70;0.65;;;21.40;99.90;;;;;;5079774;27;20048;-83
2023/07/31 12:18:13;;;;;;;0.80;0.65;;;21.20;99.90;;;;;;5103522;27;20049;-82
2023/07/31 12:20:46;;;;;;;0.80;0.47;;;21.20;99.90;;;;;;5084577;27;20038;-82
2023/07/31 12:23:27;;;;;;;0.70;0.70;;;20.80;99.90;;;;;;5087084;27;20050;-84
2023/07/31 12:26:07;;;;;;;0.60;0.50;;;20.30;99.90;;;;;;5098978;27;20454;-83
2023/07/31 12:28:38;;;;;;;0.70;0.60;;;20.20;99.90;;;;;;5086763;27;20038;-83
2023/07/31 12:31:04;;;;;;;1.13;0.82;;;20.10;99.90;;;;;;5087351;27;20034;-83
2023/07/31 12:33:35;;;;;;;1.70;0.63;;;20.10;99.90;;;;;;5093569;27;20039;-82
2023/07/31 12:36:08;;;;;;;2.55;1.00;;;20.30;99.90;;;;;;5085937;27;20046;-82
2023/07/31 12:38:38;;;;;;;3.47;1.20;;;20.20;99.90;;;;;;5092846;27;20042;-82
2023/07/31 12:41:06;;;;;;;1.25;1.15;;;20.10;99.90;;;;;;5102861;27;20567;-82
2023/07/31 12:43:33;;;;;;;2.75;1.02;;;19.90;99.90;;;;;;5085906;27;20353;-82
2023/07/31 12:45:59;;;;;;;1.02;0.82;;;19.90;99.90;;;;;;5094737;27;20126;-82